Time;durP1;ratioP1;P1;durP2;ratioP2;P2;SDS_P1;SDS_P2;PMS_P1;PMS_P2;Temp;Humidity;BMP_temperature;BMP_pressure;BME280_temperature;BME280_humidity;BME280_pressure;Samples;Min_cycle;Max_cycle;Signal;HPM_P1;HPM_P2
2022/10/31 00:02:00;;;;;;;6.85;6.25;;;9.70;99.90;;;;;;4218450;28;20123;-85
2022/10/31 00:04:20;;;;;;;6.28;5.97;;;9.70;99.90;;;;;;4229687;28;20046;-85
2022/10/31 00:06:40;;;;;;;5.55;5.32;;;9.80;99.90;;;;;;4216617;28;20150;-85
2022/10/31 00:09:03;;;;;;;6.93;6.43;;;9.80;99.90;;;;;;4227587;28;20081;-85
2022/10/31 00:11:23;;;;;;;7.32;6.47;;;9.70;99.90;;;;;;4228357;28;20436;-85
2022/10/31 00:13:43;;;;;;;7.53;7.05;;;9.70;99.90;;;;;;4221336;28;20059;-85
2022/10/31 00:16:03;;;;;;;9.45;6.75;;;9.50;99.90;;;;;;4220735;28;20066;-85
2022/10/31 00:18:23;;;;;;;7.65;6.90;;;9.20;99.90;;;;;;4229774;28;20358;-85
2022/10/31 00:20:43;;;;;;;7.35;6.82;;;9.00;99.90;;;;;;4223766;28;20048;-85
2022/10/31 00:23:04;;;;;;;7.47;7.07;;;8.90;99.90;;;;;;4220720;28;20081;-85
2022/10/31 00:25:24;;;;;;;6.60;6.35;;;8.80;99.90;;;;;;4228814;28;20054;-85
2022/10/31 00:27:44;;;;;;;6.57;5.97;;;8.80;99.90;;;;;;4219802;28;20051;-85
2022/10/31 00:30:05;;;;;;;7.22;5.82;;;8.80;99.90;;;;;;4226915;28;20086;-85
2022/10/31 00:32:24;;;;;;;5.43;5.22;;;8.80;99.90;;;;;;4228203;28;20100;-85
2022/10/31 00:34:44;;;;;;;5.95;5.38;;;8.80;99.90;;;;;;4219894;28;20063;-85
2022/10/31 00:37:04;;;;;;;4.85;4.63;;;8.80;99.90;;;;;;4229576;28;20337;-85
2022/10/31 00:39:24;;;;;;;5.55;5.10;;;8.80;99.90;;;;;;4227849;28;20472;-85
2022/10/31 00:41:43;;;;;;;5.93;5.57;;;8.90;99.90;;;;;;4227561;28;20073;-85
2022/10/31 00:44:03;;;;;;;3.97;3.88;;;9.00;99.90;;;;;;4229646;28;20046;-85
2022/10/31 00:46:23;;;;;;;7.25;4.57;;;9.00;99.90;;;;;;4215348;28;20156;-85
2022/10/31 00:48:43;;;;;;;6.07;5.68;;;9.00;99.90;;;;;;4228068;28;20051;-85
2022/10/31 00:51:03;;;;;;;4.50;4.20;;;9.10;99.90;;;;;;4219359;28;20255;-85
2022/10/31 00:53:23;;;;;;;6.05;5.35;;;8.90;99.90;;;;;;4219699;28;20397;-85
2022/10/31 00:55:42;;;;;;;6.22;6.03;;;8.80;99.90;;;;;;4228853;28;20087;-85
2022/10/31 00:58:02;;;;;;;6.63;5.25;;;8.80;99.90;;;;;;4220781;28;20441;-85
2022/10/31 01:00:23;;;;;;;6.30;5.90;;;8.80;99.90;;;;;;4216887;28;20244;-85
2022/10/31 01:02:43;;;;;;;5.97;5.68;;;8.70;99.90;;;;;;4221882;28;20074;-85
2022/10/31 01:05:03;;;;;;;6.25;5.53;;;8.60;99.90;;;;;;4221669;28;20089;-85
2022/10/31 01:07:23;;;;;;;7.32;6.78;;;8.60;99.90;;;;;;4228349;28;20039;-85
2022/10/31 01:09:43;;;;;;;6.60;6.15;;;8.50;99.90;;;;;;4228395;28;20054;-85
2022/10/31 01:12:03;;;;;;;5.80;5.35;;;8.60;99.90;;;;;;4228757;28;20403;-85
2022/10/31 01:14:23;;;;;;;6.15;5.55;;;8.50;99.90;;;;;;4215623;28;20110;-85
2022/10/31 01:16:42;;;;;;;6.90;5.60;;;8.60;99.90;;;;;;4221964;28;20070;-85
2022/10/31 01:19:03;;;;;;;6.28;6.00;;;8.60;99.90;;;;;;4224639;28;20119;-85
2022/10/31 01:21:25;;;;;;;5.55;5.25;;;8.40;99.90;;;;;;4231262;28;20273;-85
2022/10/31 01:23:45;;;;;;;6.10;5.87;;;8.40;99.90;;;;;;4230619;28;20108;-85
2022/10/31 01:26:11;;;;;;;6.38;5.72;;;8.30;99.90;;;;;;4219510;28;20390;-85
2022/10/31 01:28:32;;;;;;;5.82;5.40;;;8.30;99.90;;;;;;4231603;28;20051;-85
2022/10/31 01:30:51;;;;;;;5.93;5.53;;;8.30;99.90;;;;;;4213956;28;20063;-85
2022/10/31 01:33:11;;;;;;;7.53;6.72;;;8.30;99.90;;;;;;4229217;28;20051;-85
2022/10/31 01:35:31;;;;;;;6.15;5.75;;;8.30;99.90;;;;;;4232482;28;20050;-85
2022/10/31 01:37:51;;;;;;;6.15;5.63;;;8.20;99.90;;;;;;4230889;28;20365;-85
2022/10/31 01:40:11;;;;;;;5.93;5.45;;;8.20;99.90;;;;;;4230303;28;20046;-85
2022/10/31 01:42:31;;;;;;;9.15;5.85;;;8.20;99.90;;;;;;4223405;28;20042;-85
2022/10/31 01:45:00;;;;;;;6.75;6.18;;;8.20;99.90;;;;;;4231857;28;20050;-85
2022/10/31 01:47:27;;;;;;;4.90;4.75;;;8.20;99.90;;;;;;4228760;28;20038;-85
2022/10/31 01:49:52;;;;;;;4.63;4.38;;;8.30;99.90;;;;;;4214726;28;20052;-85
2022/10/31 01:52:30;;;;;;;5.07;4.85;;;8.30;99.90;;;;;;4220919;28;20390;-85
2022/10/31 01:54:57;;;;;;;3.88;3.78;;;8.20;99.90;;;;;;4232202;28;20042;-85
2022/10/31 01:57:19;;;;;;;5.38;4.95;;;8.20;99.90;;;;;;4223497;28;20059;-85
2022/10/31 01:59:44;;;;;;;6.38;6.03;;;8.20;99.90;;;;;;4215696;28;20147;-84
2022/10/31 02:02:04;;;;;;;8.38;6.85;;;8.20;99.90;;;;;;4231258;28;20073;-85
2022/10/31 02:04:25;;;;;;;5.45;4.95;;;8.20;99.90;;;;;;4219542;28;20373;-85
2022/10/31 02:06:50;;;;;;;7.25;6.53;;;8.30;99.90;;;;;;4231901;28;20157;-85
2022/10/31 02:09:12;;;;;;;6.05;5.75;;;8.20;99.90;;;;;;4228955;28;20265;-85
2022/10/31 02:11:35;;;;;;;5.43;5.13;;;8.20;99.90;;;;;;4213908;28;20067;-85
2022/10/31 02:13:56;;;;;;;6.32;5.95;;;8.20;99.90;;;;;;4223120;28;20055;-85
2022/10/31 02:16:16;;;;;;;8.15;6.35;;;8.10;99.90;;;;;;4231334;28;20035;-84
2022/10/31 02:18:35;;;;;;;6.70;6.40;;;8.10;99.90;;;;;;4224390;28;20047;-85
2022/10/31 02:21:16;;;;;;;7.10;6.70;;;8.10;99.90;;;;;;4229204;28;20042;-85
2022/10/31 02:24:00;;;;;;;6.20;6.00;;;7.90;99.90;;;;;;4219392;28;20090;-85
2022/10/31 02:26:55;;;;;;;8.93;5.93;;;7.90;99.90;;;;;;4223367;28;20047;-85
2022/10/31 02:29:45;;;;;;;6.18;5.97;;;7.80;99.90;;;;;;4231813;28;20081;-85
2022/10/31 02:32:19;;;;;;;5.68;5.43;;;7.90;99.90;;;;;;4230786;28;20127;-85
2022/10/31 02:35:00;;;;;;;5.22;5.03;;;8.00;99.90;;;;;;4231576;28;20042;-85
2022/10/31 02:37:38;;;;;;;5.40;5.25;;;8.10;99.90;;;;;;4229319;28;20230;-84
2022/10/31 02:40:17;;;;;;;6.28;5.88;;;8.10;99.90;;;;;;4217778;28;20251;-85
2022/10/31 02:42:59;;;;;;;4.97;4.80;;;8.10;99.90;;;;;;4231146;28;20071;-85
2022/10/31 02:45:20;;;;;;;3.95;3.83;;;8.00;99.90;;;;;;4225435;28;20232;-85
2022/10/31 02:47:42;;;;;;;5.82;5.65;;;7.80;99.90;;;;;;4229503;28;20080;-85
2022/10/31 02:50:12;;;;;;;6.60;6.05;;;7.70;99.90;;;;;;4230832;28;20046;-85
2022/10/31 02:52:34;;;;;;;5.07;4.90;;;7.70;99.90;;;;;;4230557;28;20038;-85
2022/10/31 02:54:54;;;;;;;6.82;6.10;;;7.60;99.90;;;;;;4222172;28;20385;-85
2022/10/31 02:57:17;;;;;;;6.68;6.38;;;7.60;99.90;;;;;;4229273;28;20139;-85
2022/10/31 02:59:44;;;;;;;6.20;5.82;;;7.50;99.90;;;;;;4218840;28;20059;-85
2022/10/31 03:02:24;;;;;;;10.98;5.93;;;7.50;99.90;;;;;;4228881;28;20038;-84
2022/10/31 03:04:49;;;;;;;4.85;4.75;;;7.50;99.90;;;;;;4230393;28;20247;-85
2022/10/31 03:07:18;;;;;;;6.63;6.43;;;7.40;99.90;;;;;;4230448;28;20054;-85
2022/10/31 03:09:50;;;;;;;5.13;5.03;;;7.40;99.90;;;;;;4215747;28;20074;-85
2022/10/31 03:12:47;;;;;;;5.40;5.20;;;7.30;99.90;;;;;;4227094;28;20073;-85
2022/10/31 03:15:17;;;;;;;6.10;5.90;;;7.30;99.90;;;;;;4228266;28;20157;-84
2022/10/31 03:17:50;;;;;;;5.43;5.20;;;7.40;99.90;;;;;;4222393;28;20043;-85
2022/10/31 03:20:11;;;;;;;6.83;5.73;;;7.40;99.90;;;;;;4229604;28;20042;-85
2022/10/31 03:22:33;;;;;;;5.63;5.22;;;7.40;99.90;;;;;;4229276;28;20269;-85
2022/10/31 03:24:54;;;;;;;5.85;5.55;;;7.40;99.90;;;;;;4230232;28;20043;-85
2022/10/31 03:27:18;;;;;;;4.85;4.50;;;7.40;99.90;;;;;;4216722;28;20048;-84
2022/10/31 03:29:40;;;;;;;4.97;4.63;;;7.50;99.90;;;;;;4231305;28;20068;-85
2022/10/31 03:32:04;;;;;;;4.40;4.15;;;7.60;99.90;;;;;;4227664;28;20082;-84
2022/10/31 03:34:24;;;;;;;4.03;3.90;;;7.70;99.90;;;;;;4213570;28;20074;-84
2022/10/31 03:36:46;;;;;;;4.43;3.83;;;7.70;99.90;;;;;;4228670;28;20069;-84
2022/10/31 03:39:12;;;;;;;3.17;3.05;;;7.70;99.90;;;;;;4213240;28;20066;-85
2022/10/31 03:41:38;;;;;;;3.60;3.50;;;7.70;99.90;;;;;;4220212;28;20101;-84
2022/10/31 03:44:04;;;;;;;9.52;4.07;;;7.70;99.90;;;;;;4232215;28;20089;-84
2022/10/31 03:46:25;;;;;;;5.07;4.88;;;7.50;99.90;;;;;;4227327;28;20047;-84
2022/10/31 03:48:45;;;;;;;4.68;4.38;;;7.40;99.90;;;;;;4217472;28;20067;-84
2022/10/31 03:51:32;;;;;;;4.40;4.28;;;7.30;99.90;;;;;;4228142;28;20070;-84
2022/10/31 03:53:57;;;;;;;4.57;4.43;;;7.20;99.90;;;;;;4227257;28;20097;-84
2022/10/31 03:56:29;;;;;;;5.47;5.28;;;7.10;99.90;;;;;;4230424;28;20417;-84
2022/10/31 03:59:16;;;;;;;5.97;5.45;;;7.20;99.90;;;;;;4214579;28;20069;-84
2022/10/31 04:01:40;;;;;;;5.05;4.60;;;7.40;99.90;;;;;;4222724;28;20042;-84
2022/10/31 04:04:01;;;;;;;4.63;4.53;;;7.50;99.90;;;;;;4222088;28;20365;-84
2022/10/31 04:06:22;;;;;;;4.57;3.80;;;7.50;99.90;;;;;;4220650;28;20081;-85
2022/10/31 04:08:49;;;;;;;4.90;4.70;;;7.40;99.90;;;;;;4216343;28;20047;-84
2022/10/31 04:11:11;;;;;;;4.07;3.97;;;7.40;99.90;;;;;;4212647;28;20187;-84
2022/10/31 04:13:35;;;;;;;4.72;4.32;;;7.30;99.90;;;;;;4225865;28;20231;-84
2022/10/31 04:15:56;;;;;;;4.97;4.78;;;7.20;99.90;;;;;;4219446;28;20059;-84
2022/10/31 04:18:15;;;;;;;4.45;4.22;;;7.10;99.90;;;;;;4211132;28;20074;-84
2022/10/31 04:20:38;;;;;;;6.70;6.38;;;7.10;99.90;;;;;;4229505;28;20050;-84
2022/10/31 04:22:58;;;;;;;4.68;4.47;;;7.00;99.90;;;;;;4219411;28;20083;-84
2022/10/31 04:25:18;;;;;;;6.25;5.90;;;7.00;99.90;;;;;;4222418;28;20047;-84
2022/10/31 04:27:38;;;;;;;10.85;6.10;;;7.00;99.90;;;;;;4222652;28;20082;-84
2022/10/31 04:29:59;;;;;;;4.63;4.50;;;7.00;99.90;;;;;;4220848;28;20097;-84
2022/10/31 04:32:19;;;;;;;4.55;4.45;;;6.90;99.90;;;;;;4214753;28;20079;-84
2022/10/31 04:34:39;;;;;;;4.05;4.00;;;6.80;99.90;;;;;;4216514;28;20051;-84
2022/10/31 04:36:58;;;;;;;5.38;5.05;;;6.70;99.90;;;;;;4227642;28;20227;-84
2022/10/31 04:39:18;;;;;;;6.28;5.75;;;6.60;99.90;;;;;;4227823;28;20251;-84
2022/10/31 04:41:46;;;;;;;4.63;4.53;;;6.50;99.90;;;;;;4218828;28;20066;-84
2022/10/31 04:44:05;;;;;;;5.03;4.80;;;6.60;99.90;;;;;;4220501;28;20285;-84
2022/10/31 04:46:25;;;;;;;6.63;5.68;;;6.60;99.90;;;;;;4216297;28;20289;-84
2022/10/31 04:48:45;;;;;;;6.45;4.75;;;6.70;99.90;;;;;;4229956;28;20085;-84
2022/10/31 04:51:05;;;;;;;4.20;4.10;;;6.70;99.90;;;;;;4216786;28;20074;-84
2022/10/31 04:53:25;;;;;;;5.13;4.82;;;6.80;99.90;;;;;;4219676;28;20087;-84
2022/10/31 04:55:44;;;;;;;4.38;4.18;;;6.90;99.90;;;;;;4220955;28;20059;-84
2022/10/31 04:58:04;;;;;;;5.18;4.80;;;6.90;99.90;;;;;;4231500;28;20062;-84
2022/10/31 05:00:25;;;;;;;5.53;5.07;;;7.00;99.90;;;;;;4229886;28;20358;-84
2022/10/31 05:02:50;;;;;;;4.72;4.53;;;6.90;99.90;;;;;;4217012;28;20066;-84
2022/10/31 05:05:10;;;;;;;6.03;3.88;;;6.90;99.90;;;;;;4223996;28;20107;-84
2022/10/31 05:07:30;;;;;;;4.72;4.53;;;6.90;99.90;;;;;;4217379;28;20378;-84
2022/10/31 05:09:49;;;;;;;5.35;4.95;;;7.00;99.90;;;;;;4231213;28;20058;-84
2022/10/31 05:12:09;;;;;;;4.95;4.65;;;7.00;99.90;;;;;;4220028;28;20044;-84
2022/10/31 05:14:29;;;;;;;4.30;4.20;;;7.00;99.90;;;;;;4215476;28;20055;-84
2022/10/31 05:16:49;;;;;;;5.13;4.82;;;7.10;99.90;;;;;;4230144;28;20040;-84
2022/10/31 05:19:09;;;;;;;5.05;4.85;;;7.20;99.90;;;;;;4225513;28;20296;-84
2022/10/31 05:21:28;;;;;;;4.95;4.40;;;7.10;99.90;;;;;;4233411;28;20069;-84
2022/10/31 05:23:48;;;;;;;4.13;3.83;;;7.10;99.90;;;;;;4216330;28;20079;-84
2022/10/31 05:26:08;;;;;;;5.00;4.55;;;7.20;99.90;;;;;;4219355;28;20047;-84
2022/10/31 05:28:28;;;;;;;5.63;5.40;;;7.20;99.90;;;;;;4231356;28;20108;-84
2022/10/31 05:30:47;;;;;;;5.18;4.95;;;7.20;99.90;;;;;;4223949;28;20054;-84
2022/10/31 05:33:07;;;;;;;3.28;3.08;;;7.20;99.90;;;;;;4216282;28;20066;-84
2022/10/31 05:35:30;;;;;;;4.50;4.10;;;7.20;99.90;;;;;;4224202;28;20093;-84
2022/10/31 05:37:50;;;;;;;;;;;7.10;99.90;;;;;;4224162;28;20057;-84
2022/10/31 05:40:11;;;;;;;5.15;4.35;;;7.10;99.90;;;;;;4220539;28;19938;-84
2022/10/31 05:42:31;;;;;;;4.35;4.25;;;7.00;99.90;;;;;;4217878;28;20082;-84
2022/10/31 05:44:51;;;;;;;5.90;5.53;;;6.70;99.90;;;;;;4218528;28;20058;-84
2022/10/31 05:47:10;;;;;;;57.63;47.28;;;6.60;99.90;;;;;;4232358;28;20062;-84
2022/10/31 05:49:30;;;;;;;28.27;25.48;;;6.50;99.90;;;;;;4228287;28;20059;-84
2022/10/31 05:51:50;;;;;;;7.00;6.43;;;6.40;99.90;;;;;;4228864;28;20075;-84
2022/10/31 05:54:10;;;;;;;5.20;4.25;;;6.40;99.90;;;;;;4231145;28;20444;-84
2022/10/31 05:56:35;;;;;;;4.65;4.38;;;6.40;99.90;;;;;;4231633;28;20042;-84
2022/10/31 05:58:54;;;;;;;4.85;4.75;;;6.40;99.90;;;;;;4223492;28;20109;-84
2022/10/31 06:01:14;;;;;;;4.32;4.22;;;6.40;99.90;;;;;;4224628;28;20081;-84
2022/10/31 06:03:35;;;;;;;5.55;5.22;;;6.40;99.90;;;;;;4222536;28;20085;-84
2022/10/31 06:05:54;;;;;;;5.25;5.00;;;6.30;99.90;;;;;;4231052;28;20235;-84
2022/10/31 06:08:14;;;;;;;4.50;4.22;;;6.30;99.90;;;;;;4219750;28;20043;-84
2022/10/31 06:10:34;;;;;;;5.10;4.80;;;6.30;99.90;;;;;;4228958;28;20051;-84
2022/10/31 06:12:54;;;;;;;5.07;4.78;;;6.40;99.90;;;;;;4213602;28;20070;-84
2022/10/31 06:15:14;;;;;;;4.90;4.65;;;6.40;99.90;;;;;;4218310;28;20047;-84
2022/10/31 06:17:35;;;;;;;5.95;5.35;;;6.30;99.90;;;;;;4227550;28;20035;-84
2022/10/31 06:19:54;;;;;;;5.57;5.28;;;6.20;99.90;;;;;;4221859;28;20055;-84
2022/10/31 06:22:14;;;;;;;4.45;4.20;;;6.10;99.90;;;;;;4216171;28;20039;-84
2022/10/31 06:24:34;;;;;;;4.72;4.60;;;6.00;99.90;;;;;;4217408;28;20112;-84
2022/10/31 06:26:54;;;;;;;8.63;4.07;;;6.10;99.90;;;;;;4230636;28;20291;-84
2022/10/31 06:29:14;;;;;;;5.65;4.38;;;6.10;99.90;;;;;;4231296;28;20047;-84
2022/10/31 06:31:34;;;;;;;5.57;4.57;;;6.20;99.90;;;;;;4233365;28;20050;-84
2022/10/31 06:33:53;;;;;;;5.20;4.93;;;6.30;99.90;;;;;;4222172;28;20055;-84
2022/10/31 06:36:13;;;;;;;5.22;4.70;;;6.30;99.90;;;;;;4223940;28;20039;-84
2022/10/31 06:38:34;;;;;;;4.82;4.40;;;6.30;99.90;;;;;;4230986;28;20082;-84
2022/10/31 06:40:54;;;;;;;4.90;4.60;;;6.30;99.90;;;;;;4214668;28;20286;-84
2022/10/31 06:43:14;;;;;;;5.53;3.92;;;6.30;99.90;;;;;;4215506;28;20097;-84
2022/10/31 06:45:34;;;;;;;3.90;3.80;;;6.30;99.90;;;;;;4223154;28;20051;-84
2022/10/31 06:47:55;;;;;;;3.85;3.75;;;6.40;99.90;;;;;;4229572;28;20235;-84
2022/10/31 06:50:35;;;;;;;3.58;3.42;;;6.50;99.90;;;;;;4224393;28;20066;-84
2022/10/31 06:52:57;;;;;;;4.20;3.75;;;6.70;99.90;;;;;;4217521;28;20084;-84
2022/10/31 06:55:17;;;;;;;4.17;3.90;;;6.70;99.90;;;;;;4219095;28;20042;-84
2022/10/31 06:57:37;;;;;;;3.55;3.33;;;6.80;99.90;;;;;;4230834;28;20043;-84
2022/10/31 06:59:57;;;;;;;4.25;4.05;;;6.90;99.90;;;;;;4223851;28;20055;-84
2022/10/31 07:02:17;;;;;;;3.92;3.35;;;6.90;99.90;;;;;;4231672;28;20065;-84
2022/10/31 07:04:38;;;;;;;4.53;4.13;;;6.90;99.90;;;;;;4222516;28;20078;-84
2022/10/31 07:06:57;;;;;;;3.83;3.63;;;6.90;99.90;;;;;;4229268;28;20080;-84
2022/10/31 07:09:17;;;;;;;2.72;2.53;;;7.00;99.90;;;;;;4230679;28;20082;-84
2022/10/31 07:11:37;;;;;;;2.92;2.75;;;7.10;99.90;;;;;;4227451;28;20133;-84
2022/10/31 07:13:57;;;;;;;3.53;3.03;;;7.20;99.90;;;;;;4220183;28;20062;-84
2022/10/31 07:16:16;;;;;;;2.78;2.42;;;7.30;99.90;;;;;;4227734;28;20039;-84
2022/10/31 07:18:36;;;;;;;4.93;4.63;;;7.40;99.90;;;;;;4221733;28;20047;-84
2022/10/31 07:20:56;;;;;;;4.30;4.07;;;7.40;99.90;;;;;;4218197;28;20078;-84
2022/10/31 07:23:16;;;;;;;3.30;3.20;;;7.50;99.90;;;;;;4231580;28;20100;-84
2022/10/31 07:25:36;;;;;;;6.18;5.88;;;7.50;99.90;;;;;;4222475;28;20113;-84
2022/10/31 07:27:57;;;;;;;4.15;3.95;;;7.60;99.90;;;;;;4218628;28;20066;-84
2022/10/31 07:30:18;;;;;;;4.32;3.97;;;7.60;99.90;;;;;;4228910;28;20043;-84
2022/10/31 07:32:42;;;;;;;4.80;4.60;;;7.70;99.90;;;;;;4222241;28;20043;-84
2022/10/31 07:35:03;;;;;;;5.90;5.45;;;7.60;99.90;;;;;;4215726;28;20255;-84
2022/10/31 07:37:27;;;;;;;5.88;5.53;;;7.70;99.90;;;;;;4222248;28;20082;-84
2022/10/31 07:39:47;;;;;;;4.45;4.35;;;7.70;99.90;;;;;;4227761;28;20093;-84
2022/10/31 07:42:07;;;;;;;4.22;3.88;;;7.80;99.90;;;;;;4212205;28;20100;-84
2022/10/31 07:44:27;;;;;;;6.78;4.45;;;7.90;99.90;;;;;;4230813;28;20063;-84
2022/10/31 07:46:47;;;;;;;5.18;2.78;;;8.00;99.90;;;;;;4217773;28;20040;-84
2022/10/31 07:49:06;;;;;;;3.88;3.67;;;8.10;99.90;;;;;;4222783;28;20086;-84
2022/10/31 07:51:27;;;;;;;4.40;2.97;;;8.20;99.90;;;;;;4229377;28;20039;-86
2022/10/31 07:53:47;;;;;;;4.05;3.95;;;8.30;99.90;;;;;;4230042;28;20120;-87
2022/10/31 07:56:06;;;;;;;7.93;3.65;;;8.40;99.90;;;;;;4228454;28;20047;-87
2022/10/31 07:58:26;;;;;;;6.38;4.88;;;8.50;99.90;;;;;;4223841;28;20121;-87
2022/10/31 08:00:47;;;;;;;11.57;4.38;;;8.60;99.90;;;;;;4231476;28;20067;-88
2022/10/31 08:03:13;;;;;;;3.13;3.03;;;8.80;99.90;;;;;;4228239;28;20051;-88
2022/10/31 08:05:34;;;;;;;4.72;2.83;;;8.90;99.90;;;;;;4227396;28;20273;-88
2022/10/31 08:07:54;;;;;;;2.78;2.58;;;9.10;99.90;;;;;;4217118;28;20039;-88
2022/10/31 08:10:15;;;;;;;3.45;2.05;;;9.30;99.90;;;;;;4222235;28;20062;-88
2022/10/31 08:12:35;;;;;;;3.22;2.88;;;9.40;99.90;;;;;;4223106;28;20111;-88
2022/10/31 08:14:55;;;;;;;2.30;2.20;;;9.50;99.90;;;;;;4217882;28;20109;-88
2022/10/31 08:17:15;;;;;;;3.67;1.85;;;9.60;99.90;;;;;;4220444;28;20258;-90
2022/10/31 08:19:35;;;;;;;2.00;1.85;;;9.70;99.90;;;;;;4220255;28;20070;-89
2022/10/31 08:21:55;;;;;;;1.83;1.73;;;9.80;99.90;;;;;;4213461;28;20075;-88
2022/10/31 08:24:15;;;;;;;1.50;1.40;;;9.90;99.90;;;;;;4216968;28;20781;-88
2022/10/31 08:26:34;;;;;;;1.92;1.83;;;10.10;99.90;;;;;;4223674;28;20077;-86
2022/10/31 08:28:54;;;;;;;6.22;1.88;;;10.30;99.90;;;;;;4225042;28;20067;-86
2022/10/31 08:31:14;;;;;;;2.35;2.25;;;10.40;99.90;;;;;;4219914;28;20059;-86
2022/10/31 08:33:34;;;;;;;2.42;2.33;;;10.50;99.90;;;;;;4232106;28;20360;-86
2022/10/31 08:35:53;;;;;;;3.25;3.05;;;10.60;99.90;;;;;;4228906;28;20238;-85
2022/10/31 08:38:14;;;;;;;2.33;2.17;;;10.70;99.90;;;;;;4218287;28;20431;-82
2022/10/31 08:40:35;;;;;;;3.05;2.65;;;10.90;99.90;;;;;;4229234;28;20050;-82
2022/10/31 08:43:03;;;;;;;3.35;2.78;;;11.00;99.90;;;;;;4217848;28;20275;-86
2022/10/31 08:45:23;;;;;;;3.33;3.20;;;11.10;99.90;;;;;;4216901;28;20230;-85
2022/10/31 08:47:43;;;;;;;5.75;2.80;;;11.20;99.90;;;;;;4217756;28;20039;-85
2022/10/31 08:50:03;;;;;;;3.92;3.63;;;11.40;99.90;;;;;;4231368;28;20442;-85
2022/10/31 08:52:25;;;;;;;11.32;3.38;;;11.50;99.90;;;;;;4232025;28;20039;-86
2022/10/31 08:55:05;;;;;;;3.92;3.60;;;11.60;99.90;;;;;;4228861;28;20051;-84
2022/10/31 08:57:25;;;;;;;4.75;3.20;;;11.80;99.90;;;;;;4223643;28;20081;-85
2022/10/31 08:59:45;;;;;;;6.10;3.60;;;11.90;99.90;;;;;;4220331;28;20058;-85
2022/10/31 09:02:05;;;;;;;4.63;3.95;;;12.00;99.90;;;;;;4224064;28;20055;-85
2022/10/31 09:04:25;;;;;;;4.13;3.75;;;12.10;99.90;;;;;;4228709;28;20251;-85
2022/10/31 09:06:45;;;;;;;3.70;3.50;;;12.30;99.90;;;;;;4232065;28;20073;-84
2022/10/31 09:09:25;;;;;;;2.92;2.70;;;12.40;99.90;;;;;;4232387;28;20070;-83
2022/10/31 09:11:44;;;;;;;3.75;3.55;;;12.60;99.90;;;;;;4229318;28;20319;-83
2022/10/31 09:14:04;;;;;;;2.47;2.20;;;12.70;99.90;;;;;;4223925;28;20047;-83
2022/10/31 09:16:24;;;;;;;3.13;2.42;;;12.90;99.90;;;;;;4223769;28;20103;-84
2022/10/31 09:18:44;;;;;;;5.45;2.03;;;13.10;99.90;;;;;;4231121;28;20082;-84
2022/10/31 09:21:04;;;;;;;6.50;2.58;;;13.20;99.90;;;;;;4231447;28;20698;-84
2022/10/31 09:23:24;;;;;;;2.85;1.80;;;13.30;99.90;;;;;;4231452;28;20090;-83
2022/10/31 09:25:45;;;;;;;1.75;1.60;;;13.50;99.90;;;;;;4217856;28;20059;-83
2022/10/31 09:28:14;;;;;;;2.97;1.38;;;13.70;99.90;;;;;;4229916;28;20098;-84
2022/10/31 09:30:35;;;;;;;1.85;1.30;;;13.80;99.90;;;;;;4225442;28;20046;-86
2022/10/31 09:32:56;;;;;;;1.20;1.20;;;14.20;99.90;;;;;;4232045;28;20050;-85
2022/10/31 09:35:16;;;;;;;1.77;1.67;;;14.40;99.90;;;;;;4231846;28;20055;-86
2022/10/31 09:37:41;;;;;;;2.15;1.10;;;14.60;99.90;;;;;;4222821;28;20366;-84
2022/10/31 09:40:00;;;;;;;1.08;1.02;;;14.70;99.90;;;;;;4230059;28;20091;-85
2022/10/31 09:42:54;;;;;;;3.97;1.13;;;15.00;99.90;;;;;;4232425;28;20087;-85
2022/10/31 09:45:31;;;;;;;3.92;1.25;;;15.20;99.90;;;;;;4229908;28;20050;-86
2022/10/31 09:48:03;;;;;;;4.32;1.17;;;15.30;99.90;;;;;;4217547;28;20047;-85
2022/10/31 09:50:33;;;;;;;7.43;1.20;;;15.60;99.90;;;;;;4230697;28;20043;-85
2022/10/31 09:53:08;;;;;;;12.82;1.05;;;15.80;99.90;;;;;;4224005;28;20039;-85
2022/10/31 09:55:36;;;;;;;2.17;1.58;;;16.10;99.90;;;;;;4228513;28;20108;-85
2022/10/31 09:57:58;;;;;;;4.70;1.17;;;16.30;99.90;;;;;;4216844;28;20120;-85
2022/10/31 10:00:21;;;;;;;5.83;1.73;;;16.50;99.90;;;;;;4221147;28;20051;-84
2022/10/31 10:02:51;;;;;;;;;;;16.70;99.90;;;;;;4225817;28;20281;-85
2022/10/31 10:05:41;;;;;;;1.30;1.20;;;16.90;99.90;;;;;;4230396;28;19937;-86
2022/10/31 10:08:10;;;;;;;2.20;1.00;;;17.20;99.90;;;;;;4214276;28;20039;-85
2022/10/31 10:10:56;;;;;;;1.25;1.23;;;17.40;99.90;;;;;;4229161;28;20269;-84
2022/10/31 10:13:44;;;;;;;1.42;1.33;;;17.60;99.90;;;;;;4228841;28;20043;-85
2022/10/31 10:16:34;;;;;;;1.58;0.93;;;17.90;99.90;;;;;;4216218;28;20055;-85
2022/10/31 10:19:17;;;;;;;2.35;0.98;;;18.10;99.90;;;;;;4198246;28;20103;-86
2022/10/31 10:22:09;;;;;;;5.93;1.20;;;18.60;99.90;;;;;;4217797;28;20118;-83
2022/10/31 10:24:54;;;;;;;1.00;0.90;;;18.70;99.90;;;;;;4212926;28;20092;-85
2022/10/31 10:27:20;;;;;;;5.57;1.20;;;18.90;99.90;;;;;;4223730;28;20040;-86
2022/10/31 10:30:15;;;;;;;0.85;0.80;;;19.10;99.90;;;;;;4229984;28;20039;-86
2022/10/31 10:32:46;;;;;;;1.47;0.80;;;19.30;99.90;;;;;;4231698;28;20078;-87
2022/10/31 10:35:34;;;;;;;0.90;0.90;;;19.70;99.90;;;;;;4223001;28;20301;-87
2022/10/31 10:38:00;;;;;;;0.82;0.82;;;20.00;99.40;;;;;;4231775;28;20043;-86
2022/10/31 10:40:25;;;;;;;1.10;1.00;;;20.20;99.20;;;;;;4231443;28;20038;-86
2022/10/31 10:43:23;;;;;;;1.73;0.80;;;20.40;99.00;;;;;;4229868;28;20085;-86
2022/10/31 10:48:44;;;;;;;2.40;1.70;;;21.00;99.00;;;;;;4231490;28;20053;-85
2022/10/31 10:51:08;;;;;;;3.58;1.25;;;21.60;99.20;;;;;;4223016;28;20036;-84
2022/10/31 10:54:13;;;;;;;2.97;0.88;;;21.80;99.60;;;;;;4228516;28;20246;-85
2022/10/31 10:56:38;;;;;;;2.17;1.40;;;22.00;98.50;;;;;;4222704;28;20127;-85
2022/10/31 10:58:59;;;;;;;2.90;1.63;;;22.40;99.90;;;;;;4230281;28;20084;-84
2022/10/31 11:01:18;;;;;;;3.42;1.50;;;22.30;97.50;;;;;;4230043;28;20226;-85
2022/10/31 11:03:39;;;;;;;2.72;1.17;;;22.40;98.10;;;;;;4215075;28;20060;-85
2022/10/31 11:06:01;;;;;;;2.58;1.70;;;22.40;96.30;;;;;;4230457;28;20069;-85
2022/10/31 11:08:28;;;;;;;4.15;1.83;;;22.50;97.70;;;;;;4229337;28;20092;-84
2022/10/31 11:10:59;;;;;;;2.25;0.80;;;22.80;97.60;;;;;;4227305;28;20372;-85
2022/10/31 11:13:24;;;;;;;2.63;0.90;;;22.80;96.70;;;;;;4213155;28;20043;-85
2022/10/31 11:16:14;;;;;;;1.20;0.70;;;22.90;98.20;;;;;;4230789;28;20051;-85
2022/10/31 11:18:39;;;;;;;1.63;0.93;;;23.10;97.40;;;;;;4219846;28;20287;-84
2022/10/31 11:21:05;;;;;;;1.38;0.73;;;23.00;97.20;;;;;;4230622;28;20046;-86
2022/10/31 11:23:27;;;;;;;2.38;1.02;;;22.70;98.10;;;;;;4230699;28;20070;-85
2022/10/31 11:25:58;;;;;;;2.45;0.70;;;22.60;97.10;;;;;;4228583;28;20073;-84
2022/10/31 11:28:18;;;;;;;1.60;1.10;;;22.20;98.00;;;;;;4214630;28;20066;-84
2022/10/31 11:30:53;;;;;;;2.33;0.70;;;22.00;97.90;;;;;;4221616;28;20172;-83
2022/10/31 11:33:34;;;;;;;1.63;1.27;;;22.20;98.50;;;;;;4212505;28;20108;-81
2022/10/31 11:35:55;;;;;;;1.02;0.80;;;22.10;99.50;;;;;;4230228;28;20038;-81
2022/10/31 11:38:21;;;;;;;1.92;0.80;;;22.20;97.80;;;;;;4217370;28;20077;-81
2022/10/31 11:40:52;;;;;;;2.05;0.80;;;22.60;98.80;;;;;;4227478;28;20086;-82
2022/10/31 11:43:17;;;;;;;2.00;0.80;;;22.80;97.50;;;;;;4226441;28;20089;-81
2022/10/31 11:45:37;;;;;;;2.63;0.88;;;23.20;97.40;;;;;;4213721;28;20066;-81
2022/10/31 11:47:58;;;;;;;1.35;0.70;;;22.80;98.20;;;;;;4230362;28;20051;-80
2022/10/31 11:50:29;;;;;;;;;;;22.50;97.60;;;;;;4216834;28;20231;-81
2022/10/31 11:52:50;;;;;;;2.35;1.00;;;22.90;98.20;;;;;;4229344;28;19969;-81
2022/10/31 11:55:10;;;;;;;2.55;1.10;;;22.60;97.40;;;;;;4229604;28;20055;-82
2022/10/31 11:57:47;;;;;;;1.85;0.80;;;22.80;97.60;;;;;;4214306;28;20397;-82
2022/10/31 12:00:31;;;;;;;0.82;0.82;;;22.80;97.30;;;;;;4213951;28;20108;-81
2022/10/31 12:03:12;;;;;;;3.10;1.02;;;22.90;97.00;;;;;;4229297;28;20104;-81
2022/10/31 12:05:32;;;;;;;1.25;0.70;;;22.90;96.80;;;;;;4229351;28;20404;-81
2022/10/31 12:07:52;;;;;;;1.83;0.80;;;22.90;96.50;;;;;;4227161;28;20365;-81
2022/10/31 12:10:13;;;;;;;3.42;1.08;;;23.30;96.80;;;;;;4216756;28;20051;-81
2022/10/31 12:12:51;;;;;;;3.47;1.00;;;24.10;97.00;;;;;;4230780;28;20042;-80
2022/10/31 12:15:36;;;;;;;0.98;0.70;;;23.70;96.10;;;;;;4227040;28;20058;-81
2022/10/31 12:18:02;;;;;;;2.25;0.90;;;23.20;97.10;;;;;;4226870;28;20042;-80
2022/10/31 12:20:57;;;;;;;0.70;0.70;;;23.50;96.60;;;;;;4229333;28;20082;-81
2022/10/31 12:23:54;;;;;;;3.53;0.85;;;23.40;96.50;;;;;;4213547;28;20248;-81
2022/10/31 12:26:17;;;;;;;0.75;0.75;;;23.70;96.90;;;;;;4228556;28;20098;-81
2022/10/31 12:28:50;;;;;;;;;;;24.00;95.80;;;;;;4231060;28;20047;-80
2022/10/31 12:31:38;;;;;;;2.28;0.60;;;23.50;96.00;;;;;;4229325;28;19923;-81
2022/10/31 12:34:17;;;;;;;1.05;0.75;;;23.30;96.30;;;;;;4227124;28;20051;-81
2022/10/31 12:37:01;;;;;;;0.65;0.63;;;23.40;96.00;;;;;;4229961;28;20239;-81
2022/10/31 12:39:25;;;;;;;;;;;23.00;95.50;;;;;;4214777;28;20277;-81
2022/10/31 12:42:03;;;;;;;3.80;0.82;;;23.40;97.30;;;;;;4216466;28;19962;-81
2022/10/31 12:45:02;;;;;;;4.25;0.70;;;23.50;95.70;;;;;;4216615;28;20066;-81
2022/10/31 12:47:38;;;;;;;4.68;0.80;;;23.50;95.70;;;;;;4220438;28;20051;-81